createdAt,value
2022-09-28T00:01:10.457Z,99331.03
2022-09-28T00:03:59.774Z,99332.38
2022-09-28T00:06:45.503Z,99336.28
2022-09-28T00:09:30.684Z,99329.56
2022-09-28T00:12:16.321Z,99329.16
2022-09-28T00:15:03.106Z,99309.78
2022-09-28T00:17:48.733Z,99300.81
2022-09-28T00:20:33.983Z,99320.81
2022-09-28T00:23:19.166Z,99315.25
2022-09-28T00:26:05.619Z,99313.19
2022-09-28T00:28:52.654Z,99311.22
2022-09-28T00:31:38.196Z,99299.78
2022-09-28T00:34:23.406Z,99317.97
2022-09-28T00:37:09.830Z,99314.72
2022-09-28T00:39:55.670Z,99317.34
2022-09-28T00:42:42.832Z,99306.66
2022-09-28T00:45:28.489Z,99314.00
2022-09-28T00:48:13.843Z,99299.47
2022-09-28T00:51:02.427Z,99311.41
2022-09-28T00:53:49.964Z,99298.22
2022-09-28T00:56:40.318Z,99307.19
2022-09-28T00:59:26.638Z,99290.56
2022-09-28T01:02:12.076Z,99299.47
2022-09-28T01:04:59.429Z,99291.41
2022-09-28T01:07:47.028Z,99287.19
2022-09-28T01:10:32.385Z,99294.16
2022-09-28T01:13:19.343Z,99295.22
2022-09-28T01:16:12.928Z,99292.59
2022-09-28T01:19:16.870Z,99280.19
2022-09-28T01:22:20.989Z,99282.91
2022-09-28T01:25:12.943Z,99292.41
2022-09-28T01:28:05.553Z,99289.63
2022-09-28T01:31:07.470Z,99290.97
2022-09-28T01:33:57.457Z,99288.19
2022-09-28T01:36:48.571Z,99268.47
2022-09-28T01:39:39.540Z,99271.16
2022-09-28T01:42:31.126Z,99279.16
2022-09-28T01:45:26.209Z,99274.13
2022-09-28T01:48:17.388Z,99271.06
2022-09-28T01:51:08.116Z,99260.97
2022-09-28T01:53:58.402Z,99258.13
2022-09-28T01:56:49.558Z,99250.91
2022-09-28T01:59:38.347Z,99248.09
2022-09-28T02:02:30.197Z,99254.16
2022-09-28T02:05:20.917Z,99259.13
2022-09-28T02:08:27.160Z,99262.84
2022-09-28T02:11:15.694Z,99249.88
2022-09-28T02:14:05.142Z,99253.16
2022-09-28T02:16:54.195Z,99249.69
2022-09-28T02:19:40.400Z,99247.75
2022-09-28T02:22:33.753Z,99248.88
2022-09-28T02:25:38.350Z,99244.94
2022-09-28T02:28:23.956Z,99250.47
2022-09-28T02:31:09.358Z,99238.88
2022-09-28T02:33:57.606Z,99243.66
2022-09-28T02:36:45.019Z,99249.44
2022-09-28T02:39:30.518Z,99233.66
2022-09-28T02:42:29.460Z,99243.25
2022-09-28T02:45:43.960Z,99246.19
2022-09-28T02:49:17.236Z,99246.72
2022-09-28T02:52:26.951Z,99249.22
2022-09-28T02:55:48.737Z,99235.44
2022-09-28T02:58:47.883Z,99251.19
2022-09-28T03:01:44.595Z,99236.53
2022-09-28T03:04:44.650Z,99250.06
2022-09-28T03:07:36.753Z,99234.13
2022-09-28T03:10:31.137Z,99240.09
2022-09-28T03:13:17.359Z,99239.44
2022-09-28T03:16:15.427Z,99235.78
2022-09-28T03:19:01.061Z,99239.97
2022-09-28T03:21:46.373Z,99250.47
2022-09-28T03:24:32.124Z,99241.34
2022-09-28T03:27:17.588Z,99244.91
2022-09-28T03:30:03.799Z,99236.44
2022-09-28T03:32:58.457Z,99238.38
2022-09-28T03:35:46.876Z,99225.69
2022-09-28T03:38:32.223Z,99219.69
2022-09-28T03:41:17.619Z,99237.44
2022-09-28T03:44:03.576Z,99247.84
2022-09-28T03:46:49.181Z,99242.09
2022-09-28T03:49:34.521Z,99241.03
2022-09-28T03:52:19.653Z,99245.94
2022-09-28T03:55:05.619Z,99236.97
2022-09-28T03:57:55.825Z,99239.97
2022-09-28T04:00:41.007Z,99231.41
2022-09-28T04:03:26.610Z,99215.31
2022-09-28T04:06:12.615Z,99222.44
2022-09-28T04:08:58.251Z,99207.88
2022-09-28T04:12:02.803Z,99216.75
2022-09-28T04:14:49.510Z,99208.28
2022-09-28T04:17:39.783Z,99213.56
2022-09-28T04:20:25.652Z,99224.38
2022-09-28T04:23:11.333Z,99208.16
2022-09-28T04:25:56.944Z,99206.91
2022-09-28T04:29:06.309Z,99213.69
2022-09-28T04:31:53.723Z,99209.63
2022-09-28T04:34:43.730Z,99206.28
2022-09-28T04:37:31.286Z,99213.34
2022-09-28T04:40:16.612Z,99211.28
2022-09-28T04:43:02.308Z,99201.50
2022-09-28T04:45:48.429Z,99205.72
2022-09-28T04:48:33.798Z,99204.06
2022-09-28T04:51:19.485Z,99217.31
2022-09-28T04:54:04.685Z,99200.34
2022-09-28T04:56:51.123Z,99212.25
2022-09-28T04:59:37.649Z,99205.69
2022-09-28T05:02:23.265Z,99196.66
2022-09-28T05:05:08.780Z,99211.38
2022-09-28T05:07:58.180Z,99189.59
2022-09-28T05:10:43.817Z,99199.56
2022-09-28T05:13:30.345Z,99208.31
2022-09-28T05:16:16.459Z,99193.50
2022-09-28T05:19:01.938Z,99207.75
2022-09-28T05:21:48.727Z,99205.31
2022-09-28T05:24:34.466Z,99192.44
2022-09-28T05:27:19.893Z,99192.16
2022-09-28T05:30:05.861Z,99198.47
2022-09-28T05:32:51.567Z,99178.94
2022-09-28T05:35:37.047Z,99196.22
2022-09-28T05:38:23.046Z,99197.19
2022-09-28T05:41:08.482Z,99195.41
2022-09-28T05:43:55.025Z,99187.75
2022-09-28T05:46:40.654Z,99195.69
2022-09-28T05:49:29.042Z,99195.66
2022-09-28T05:52:14.856Z,99199.41
2022-09-28T05:55:00.457Z,99195.41
2022-09-28T05:57:46.092Z,99200.03
2022-09-28T06:00:33.373Z,99202.94
2022-09-28T06:03:18.995Z,99198.91
2022-09-28T06:06:04.506Z,99187.16
2022-09-28T06:08:50.038Z,99192.94
2022-09-28T06:11:35.549Z,99193.25
2022-09-28T06:14:21.206Z,99199.88
2022-09-28T06:17:06.734Z,99199.91
2022-09-28T06:19:53.153Z,99192.56
2022-09-28T06:22:39.129Z,99183.28
2022-09-28T06:25:25.019Z,99202.75
2022-09-28T06:28:13.522Z,99206.72
2022-09-28T06:31:02.002Z,99194.88
2022-09-28T06:33:48.258Z,99208.47
2022-09-28T06:36:33.815Z,99214.34
2022-09-28T06:39:19.641Z,99221.34
2022-09-28T06:42:04.975Z,99212.56
2022-09-28T06:44:50.420Z,99216.03
2022-09-28T06:47:35.901Z,99218.16
2022-09-28T06:50:21.301Z,99223.94
2022-09-28T06:53:10.298Z,99211.09
2022-09-28T06:55:56.068Z,99215.31
2022-09-28T06:58:41.607Z,99213.63
2022-09-28T07:01:27.282Z,99219.47
2022-09-28T07:04:12.693Z,99206.28
2022-09-28T07:06:59.675Z,99211.75
2022-09-28T07:09:50.343Z,99219.69
2022-09-28T07:12:38.747Z,99212.06
2022-09-28T07:15:24.586Z,99214.81
2022-09-28T07:18:11.251Z,99215.44
2022-09-28T07:20:57.479Z,99229.06
2022-09-28T07:23:52.160Z,99231.22
2022-09-28T07:26:38.983Z,99239.69
2022-09-28T07:29:25.247Z,99241.63
2022-09-28T07:32:10.885Z,99236.97
2022-09-28T07:34:58.860Z,99232.13
2022-09-28T07:37:44.678Z,99238.69
2022-09-28T07:40:50.078Z,99229.91
2022-09-28T07:43:35.606Z,99245.75
2022-09-28T07:46:22.101Z,99242.88
2022-09-28T07:49:11.383Z,99247.81
2022-09-28T07:51:58.085Z,99253.06
2022-09-28T07:54:43.393Z,99255.25
2022-09-28T07:57:28.985Z,99244.88
2022-09-28T08:00:14.941Z,99258.00
2022-09-28T08:03:01.132Z,99268.03
2022-09-28T08:05:47.388Z,99257.72
2022-09-28T08:08:35.762Z,99265.09
2022-09-28T08:11:21.318Z,99255.97
2022-09-28T08:14:07.135Z,99265.50
2022-09-28T08:16:53.397Z,99253.53
2022-09-28T08:19:58.023Z,99273.19
2022-09-28T08:22:44.140Z,99277.94
2022-09-28T08:25:29.458Z,99276.69
2022-09-28T08:28:17.483Z,99247.22
2022-09-28T08:31:03.285Z,99269.00
2022-09-28T08:33:53.703Z,99293.25
2022-09-28T08:36:39.415Z,99281.31
2022-09-28T08:39:25.001Z,99289.03
2022-09-28T08:42:37.413Z,99290.22
2022-09-28T08:45:27.519Z,99278.50
2022-09-28T08:48:48.200Z,99271.84
2022-09-28T08:51:53.729Z,99285.75
2022-09-28T08:55:14.629Z,99285.47
2022-09-28T08:58:14.810Z,99291.06
2022-09-28T09:01:00.661Z,99287.53
2022-09-28T09:03:48.640Z,99293.44
2022-09-28T09:07:10.391Z,99285.41
2022-09-28T09:10:22.095Z,99289.16
2022-09-28T09:13:40.171Z,99284.75
2022-09-28T09:16:35.589Z,99307.56
2022-09-28T09:19:35.459Z,99298.94
2022-09-28T09:22:38.959Z,99303.25
2022-09-28T09:25:45.520Z,99300.97
2022-09-28T09:29:04.706Z,99285.38
2022-09-28T09:32:20.369Z,99289.94
2022-09-28T09:35:49.540Z,99301.75
2022-09-28T09:39:03.060Z,99295.84
2022-09-28T09:42:23.524Z,99303.41
2022-09-28T09:45:36.811Z,99301.31
2022-09-28T09:48:29.759Z,99295.38
2022-09-28T09:51:32.832Z,99297.56
2022-09-28T09:54:32.858Z,99288.03
2022-09-28T09:57:30.031Z,99297.56
2022-09-28T10:00:16.285Z,99305.25
2022-09-28T10:03:02.954Z,99305.13
2022-09-28T10:05:55.995Z,99292.75
2022-09-28T10:08:46.853Z,99308.44
2022-09-28T10:11:37.112Z,99293.03
2022-09-28T10:14:24.781Z,99305.09
2022-09-28T10:17:15.232Z,99295.63
2022-09-28T10:20:01.046Z,99293.31
2022-09-28T10:22:47.083Z,99286.66
2022-09-28T10:25:37.446Z,99288.72
2022-09-28T10:28:34.035Z,99290.69
2022-09-28T10:31:37.970Z,99301.56
2022-09-28T10:34:30.736Z,99295.28
2022-09-28T10:37:17.982Z,99297.94
2022-09-28T10:40:03.481Z,99304.97
2022-09-28T10:42:48.873Z,99295.59
2022-09-28T10:45:36.949Z,99295.06
2022-09-28T10:48:22.398Z,99304.28
2022-09-28T10:51:08.174Z,99291.78
2022-09-28T10:54:02.070Z,99299.13
2022-09-28T10:56:49.468Z,99315.50
2022-09-28T10:59:39.138Z,99320.28
2022-09-28T11:02:35.663Z,99311.28
2022-09-28T11:05:24.609Z,99319.91
2022-09-28T11:08:25.066Z,99313.16
2022-09-28T11:11:13.484Z,99312.31
2022-09-28T11:14:03.424Z,99312.59
2022-09-28T11:17:08.940Z,99313.31
2022-09-28T11:19:56.242Z,99308.88
2022-09-28T11:22:42.274Z,99309.63
2022-09-28T11:25:29.800Z,99315.88
2022-09-28T11:28:23.913Z,99317.84
2022-09-28T11:31:09.999Z,99319.50
2022-09-28T11:34:31.421Z,99321.81
2022-09-28T11:37:55.526Z,99326.31
2022-09-28T11:40:58.975Z,99328.22
2022-09-28T11:43:52.358Z,99324.38
2022-09-28T11:46:55.278Z,99332.81
2022-09-28T11:49:49.736Z,99329.34
2022-09-28T11:53:05.935Z,99329.03
2022-09-28T11:55:59.546Z,99332.56
2022-09-28T11:58:49.033Z,99333.91
2022-09-28T12:01:43.584Z,99331.94
2022-09-28T12:04:41.550Z,99333.69
2022-09-28T12:07:37.330Z,99328.50
2022-09-28T12:10:48.013Z,99323.31
2022-09-28T12:13:37.262Z,99318.16
2022-09-28T12:17:04.197Z,99329.00
2022-09-28T12:19:59.277Z,99323.38
2022-09-28T12:22:54.294Z,99329.00
2022-09-28T12:25:46.610Z,99330.97
2022-09-28T12:28:42.114Z,99314.41
2022-09-28T12:31:39.734Z,99310.53
2022-09-28T12:34:25.110Z,99318.78
2022-09-28T12:37:36.221Z,99327.06
2022-09-28T12:40:55.604Z,99319.56
2022-09-28T12:43:54.478Z,99323.94
2022-09-28T12:46:47.673Z,99326.53
2022-09-28T12:53:07.287Z,99327.38
2022-09-28T12:56:18.029Z,99315.44
2022-09-28T12:59:18.053Z,99322.38
2022-09-28T13:02:42.227Z,99322.13
2022-09-28T13:05:44.158Z,99333.75
2022-09-28T13:08:46.640Z,99329.88
2022-09-28T13:11:41.203Z,99329.78
2022-09-28T13:14:53.065Z,99334.91
2022-09-28T13:17:46.404Z,99336.44
2022-09-28T13:20:55.604Z,99344.25
2022-09-28T13:23:46.745Z,99337.88
2022-09-28T13:26:40.337Z,99335.75
2022-09-28T13:29:27.025Z,99330.94
2022-09-28T13:32:12.937Z,99332.00
2022-09-28T13:34:59.300Z,99329.50
2022-09-28T13:37:45.310Z,99339.78
2022-09-28T13:41:04.527Z,99344.72
2022-09-28T13:44:12.277Z,99339.47
2022-09-28T13:47:20.006Z,99338.28
2022-09-28T13:50:34.588Z,99346.16
2022-09-28T13:53:19.736Z,99349.94
2022-09-28T13:56:36.109Z,99344.56
2022-09-28T13:59:26.587Z,99338.47
2022-09-28T14:02:37.998Z,99344.97
2022-09-28T14:05:23.362Z,99345.50
2022-09-28T14:08:08.723Z,99343.53
2022-09-28T14:10:56.477Z,99340.34
2022-09-28T14:13:42.410Z,99355.72
2022-09-28T14:16:33.274Z,99352.97
2022-09-28T14:19:24.214Z,99338.59
2022-09-28T14:22:44.854Z,99346.41
2022-09-28T14:25:32.234Z,99349.16
2022-09-28T14:28:36.728Z,99363.13
2022-09-28T14:31:28.857Z,99344.19
2022-09-28T14:34:33.970Z,99350.78
2022-09-28T14:37:44.288Z,99364.69
2022-09-28T14:41:10.012Z,99343.91
2022-09-28T14:44:08.562Z,99363.28
2022-09-28T14:47:24.891Z,99365.78
2022-09-28T14:50:26.886Z,99377.59
2022-09-28T14:53:21.988Z,99387.06
2022-09-28T14:56:08.786Z,99373.84
2022-09-28T14:58:57.856Z,99380.25
2022-09-28T15:01:55.930Z,99383.06
2022-09-28T15:04:49.756Z,99382.91
2022-09-28T15:07:52.539Z,99376.50
2022-09-28T15:10:42.515Z,99379.97
2022-09-28T15:13:28.826Z,99376.72
2022-09-28T15:16:17.221Z,99390.97
2022-09-28T15:19:29.812Z,99386.44
2022-09-28T15:22:20.366Z,99386.53
2022-09-28T15:25:15.181Z,99383.88
2022-09-28T15:28:13.312Z,99366.31
2022-09-28T15:31:02.418Z,99365.22
2022-09-28T15:34:06.376Z,99389.47
2022-09-28T15:36:56.315Z,99382.88
2022-09-28T15:39:42.284Z,99408.25
2022-09-28T15:42:27.509Z,99390.41
2022-09-28T15:45:39.379Z,99409.44
2022-09-28T15:48:40.595Z,99404.28
2022-09-28T15:51:28.327Z,99409.41
2022-09-28T15:54:24.754Z,99415.03
2022-09-28T15:57:32.775Z,99415.88
2022-09-28T16:00:21.307Z,99420.88
2022-09-28T16:03:06.712Z,99421.56
2022-09-28T16:05:58.540Z,99424.63
2022-09-28T16:08:45.876Z,99415.22
2022-09-28T16:11:39.546Z,99424.97
2022-09-28T16:14:27.152Z,99412.31
2022-09-28T16:17:32.703Z,99408.50
2022-09-28T16:20:54.380Z,99434.75
2022-09-28T16:23:41.650Z,99431.06
2022-09-28T16:26:33.352Z,99438.00
2022-09-28T16:29:39.697Z,99431.63
2022-09-28T16:32:25.177Z,99438.03
2022-09-28T16:35:10.869Z,99448.31
2022-09-28T16:38:17.676Z,99462.16
2022-09-28T16:41:03.075Z,99443.06
2022-09-28T16:43:49.673Z,99455.63
2022-09-28T16:46:37.509Z,99443.16
2022-09-28T16:49:25.242Z,99450.81
2022-09-28T16:52:12.482Z,99442.78
2022-09-28T16:55:38.832Z,99453.25
2022-09-28T16:58:22.487Z,99443.25
2022-09-28T17:01:12.048Z,99471.13
2022-09-28T17:03:57.645Z,99459.88
2022-09-28T17:06:43.457Z,99472.13
2022-09-28T17:09:29.331Z,99451.53
2022-09-28T17:12:24.470Z,99462.47
2022-09-28T17:15:09.976Z,99468.75
2022-09-28T17:17:55.770Z,99470.13
2022-09-28T17:20:44.133Z,99479.13
2022-09-28T17:23:30.057Z,99479.88
2022-09-28T17:26:30.592Z,99492.34
2022-09-28T17:29:16.501Z,99493.28
2022-09-28T17:32:02.268Z,99495.97
2022-09-28T17:35:00.872Z,99466.97
2022-09-28T17:37:52.581Z,99484.44
2022-09-28T17:40:39.038Z,99484.31
2022-09-28T17:43:24.680Z,99484.81
2022-09-28T17:46:27.316Z,99505.75
2022-09-28T17:49:12.738Z,99511.50
2022-09-28T17:51:58.214Z,99503.28
2022-09-28T17:54:44.132Z,99502.94
2022-09-28T17:57:29.523Z,99513.56
2022-09-28T18:00:16.879Z,99521.31
2022-09-28T18:03:02.319Z,99520.44
2022-09-28T18:05:53.566Z,99513.06
2022-09-28T18:08:39.155Z,99508.13
2022-09-28T18:11:24.844Z,99522.41
2022-09-28T18:14:11.321Z,99521.03
2022-09-28T18:16:57.355Z,99515.03
2022-09-28T18:19:42.933Z,99525.03
2022-09-28T18:22:28.751Z,99513.06
2022-09-28T18:25:14.299Z,99525.38
2022-09-28T18:28:00.080Z,99533.41
2022-09-28T18:30:45.865Z,99540.50
2022-09-28T18:33:31.427Z,99546.00
2022-09-28T18:36:17.064Z,99544.31
2022-09-28T18:39:03.085Z,99524.31
2022-09-28T18:41:48.462Z,99535.97
2022-09-28T18:44:34.032Z,99561.25
2022-09-28T18:47:19.793Z,99546.19
2022-09-28T18:50:06.003Z,99548.22
2022-09-28T18:52:51.531Z,99547.88
2022-09-28T18:55:39.260Z,99540.16
2022-09-28T18:58:24.860Z,99564.75
2022-09-28T19:01:29.396Z,99563.47
2022-09-28T19:04:15.897Z,99567.28
2022-09-28T19:07:01.462Z,99570.13
2022-09-28T19:09:47.160Z,99580.91
2022-09-28T19:12:32.617Z,99574.38
2022-09-28T19:15:20.060Z,99576.00
2022-09-28T19:18:05.399Z,99577.28
2022-09-28T19:20:50.889Z,99586.13
2022-09-28T19:23:37.138Z,99581.03
2022-09-28T19:26:25.308Z,99577.06
2022-09-28T19:29:10.937Z,99568.75
2022-09-28T19:31:57.072Z,99575.53
2022-09-28T19:34:45.413Z,99588.44
2022-09-28T19:37:35.273Z,99584.31
2022-09-28T19:40:20.703Z,99581.69
2022-09-28T19:43:06.422Z,99582.69
2022-09-28T19:45:53.634Z,99586.41
2022-09-28T19:48:42.217Z,99594.47
2022-09-28T19:51:28.739Z,99597.06
2022-09-28T19:54:14.756Z,99575.09
2022-09-28T19:57:00.759Z,99598.25
2022-09-28T19:59:50.679Z,99603.72
2022-09-28T20:02:38.095Z,99594.34
2022-09-28T20:05:23.766Z,99604.09
2022-09-28T20:08:09.642Z,99616.75
2022-09-28T20:10:56.664Z,99615.00
2022-09-28T20:13:42.286Z,99607.41
2022-09-28T20:16:28.778Z,99620.19
2022-09-28T20:19:14.801Z,99618.00
2022-09-28T20:22:02.488Z,99610.97
2022-09-28T20:24:47.873Z,99613.84
2022-09-28T20:27:33.496Z,99624.19
2022-09-28T20:30:18.733Z,99623.66
2022-09-28T20:33:07.341Z,99630.22
2022-09-28T20:35:52.939Z,99632.72
2022-09-28T20:38:40.417Z,99634.09
2022-09-28T20:41:26.378Z,99624.47
2022-09-28T20:44:12.098Z,99646.63
2022-09-28T20:46:57.499Z,99645.31
2022-09-28T20:49:42.830Z,99638.72
2022-09-28T20:52:28.611Z,99645.22
2022-09-28T20:55:14.053Z,99641.56
2022-09-28T20:58:03.194Z,99651.81
2022-09-28T21:00:48.803Z,99655.88
2022-09-28T21:03:35.273Z,99657.13
2022-09-28T21:06:22.293Z,99646.78
2022-09-28T21:09:09.546Z,99649.22
2022-09-28T21:11:55.697Z,99651.06
2022-09-28T21:14:41.088Z,99664.09
2022-09-28T21:17:26.795Z,99653.97
2022-09-28T21:20:12.138Z,99669.84
2022-09-28T21:22:57.837Z,99649.22
2022-09-28T21:25:45.494Z,99663.31
2022-09-28T21:28:30.943Z,99648.84
2022-09-28T21:31:16.516Z,99656.97
2022-09-28T21:34:04.579Z,99656.97
2022-09-28T21:36:54.630Z,99668.31
2022-09-28T21:39:40.101Z,99665.72
2022-09-28T21:42:25.754Z,99673.75
2022-09-28T21:45:11.363Z,99671.06
2022-09-28T21:47:58.413Z,99667.78
2022-09-28T21:51:04.065Z,99687.75
2022-09-28T21:53:49.712Z,99677.81
2022-09-28T21:56:35.295Z,99679.25
2022-09-28T21:59:20.937Z,99669.22
2022-09-28T22:02:06.511Z,99678.09
2022-09-28T22:04:51.998Z,99685.75
2022-09-28T22:07:38.729Z,99673.88
2022-09-28T22:10:24.340Z,99667.69
2022-09-28T22:13:09.658Z,99661.06
2022-09-28T22:15:55.841Z,99670.22
2022-09-28T22:18:41.935Z,99658.63
2022-09-28T22:21:33.252Z,99679.22
2022-09-28T22:24:18.967Z,99681.44
2022-09-28T22:27:04.633Z,99695.78
2022-09-28T22:29:50.979Z,99684.50
2022-09-28T22:32:36.284Z,99680.28
2022-09-28T22:35:21.733Z,99686.03
2022-09-28T22:38:07.270Z,99688.56
2022-09-28T22:40:56.445Z,99682.66
2022-09-28T22:43:45.117Z,99685.06
2022-09-28T22:46:33.626Z,99688.13
2022-09-28T22:49:19.676Z,99678.50
2022-09-28T22:52:05.224Z,99686.44
2022-09-28T22:54:51.177Z,99680.22
2022-09-28T22:57:36.747Z,99694.84
2022-09-28T23:00:22.257Z,99681.44
2022-09-28T23:03:07.841Z,99682.75
2022-09-28T23:05:54.682Z,99695.88
2022-09-28T23:08:40.299Z,99689.59
2022-09-28T23:11:26.005Z,99695.69
2022-09-28T23:14:12.425Z,99706.47
2022-09-28T23:16:57.873Z,99687.09
2022-09-28T23:19:43.536Z,99689.31
2022-09-28T23:22:29.110Z,99681.78
2022-09-28T23:25:16.097Z,99696.91
2022-09-28T23:28:01.543Z,99699.66
2022-09-28T23:30:47.920Z,99690.75
2022-09-28T23:33:34.085Z,99686.53
2022-09-28T23:36:19.773Z,99695.53
2022-09-28T23:39:05.325Z,99694.00
2022-09-28T23:41:50.883Z,99694.41
2022-09-28T23:44:36.722Z,99682.47
2022-09-28T23:47:21.955Z,99699.81
2022-09-28T23:50:07.720Z,99691.03
2022-09-28T23:52:53.580Z,99689.28
2022-09-28T23:55:39.212Z,99692.31
2022-09-28T23:58:25.650Z,99686.13
